createdAt,value
2018-03-18T00:00:51.827Z,1.11
2018-03-18T00:01:56.964Z,1.10
2018-03-18T00:03:00.457Z,1.08
2018-03-18T00:04:03.816Z,1.08
2018-03-18T00:05:07.351Z,1.09
2018-03-18T00:06:10.800Z,1.09
2018-03-18T00:07:14.173Z,1.09
2018-03-18T00:08:17.666Z,1.10
2018-03-18T00:09:21.016Z,1.10
2018-03-18T00:10:24.658Z,1.11
2018-03-18T00:11:28.042Z,1.11
2018-03-18T00:12:31.421Z,1.11
2018-03-18T00:13:34.797Z,1.10
2018-03-18T00:14:38.203Z,1.09
2018-03-18T00:15:41.548Z,1.05
2018-03-18T00:16:44.920Z,1.03
2018-03-18T00:17:48.217Z,1.00
2018-03-18T00:18:51.548Z,0.98
2018-03-18T00:19:54.872Z,0.95
2018-03-18T00:20:58.240Z,0.93
2018-03-18T00:22:01.530Z,0.91
2018-03-18T00:23:04.893Z,0.92
2018-03-18T00:24:08.285Z,0.93
2018-03-18T00:25:11.732Z,0.95
2018-03-18T00:26:15.054Z,0.98
2018-03-18T00:27:18.462Z,1.00
2018-03-18T00:28:22.638Z,1.02
2018-03-18T00:29:26.117Z,1.00
2018-03-18T00:30:29.523Z,1.02
2018-03-18T00:31:32.939Z,1.02
2018-03-18T00:32:36.276Z,1.03
2018-03-18T00:33:39.644Z,1.03
2018-03-18T00:34:42.987Z,1.03
2018-03-18T00:35:46.293Z,1.03
2018-03-18T00:36:49.680Z,1.03
2018-03-18T00:37:53.083Z,1.04
2018-03-18T00:38:56.542Z,1.05
2018-03-18T00:39:59.878Z,1.07
2018-03-18T00:41:03.224Z,1.09
2018-03-18T00:42:06.589Z,1.11
2018-03-18T00:43:10.009Z,1.12
2018-03-18T00:44:13.449Z,1.13
2018-03-18T00:45:16.815Z,1.15
2018-03-18T00:46:20.251Z,1.18
2018-03-18T00:47:23.605Z,1.16
2018-03-18T00:48:27.092Z,1.13
2018-03-18T00:49:30.441Z,1.12
2018-03-18T00:50:33.866Z,1.10
2018-03-18T00:53:14.347Z,1.05
2018-03-18T00:54:17.722Z,1.05
2018-03-18T00:55:21.130Z,1.07
2018-03-18T00:56:24.479Z,1.09
2018-03-18T00:57:27.869Z,1.10
2018-03-18T00:58:31.260Z,1.10
2018-03-18T00:59:34.674Z,1.11
2018-03-18T01:00:38.128Z,1.10
2018-03-18T01:01:41.473Z,1.10
2018-03-18T01:02:44.833Z,1.11
2018-03-18T01:03:48.178Z,1.08
2018-03-18T01:04:51.496Z,1.05
2018-03-18T01:05:54.963Z,1.02
2018-03-18T01:06:58.275Z,1.01
2018-03-18T01:08:01.662Z,1.00
2018-03-18T01:09:04.974Z,0.98
2018-03-18T01:10:08.302Z,0.98
2018-03-18T01:11:13.537Z,0.97
2018-03-18T01:12:16.936Z,0.93
2018-03-18T01:13:20.356Z,0.92
2018-03-18T01:14:23.724Z,0.92
2018-03-18T01:15:27.047Z,0.93
2018-03-18T01:16:30.373Z,0.95
2018-03-18T01:17:34.817Z,0.94
2018-03-18T01:18:38.272Z,0.93
2018-03-18T01:19:41.652Z,0.95
2018-03-18T01:20:45.064Z,0.94
2018-03-18T01:21:48.775Z,0.94
2018-03-18T01:22:52.191Z,0.93
2018-03-18T01:23:56.096Z,0.91
2018-03-18T01:24:59.516Z,0.88
2018-03-18T01:26:02.831Z,0.86
2018-03-18T01:27:06.230Z,0.85
2018-03-18T01:28:09.660Z,0.85
2018-03-18T01:29:13.070Z,0.88
2018-03-18T01:30:16.439Z,0.90
2018-03-18T01:31:20.581Z,0.93
2018-03-18T01:32:24.050Z,0.95
2018-03-18T01:33:27.527Z,0.97
2018-03-18T01:34:30.842Z,0.98
2018-03-18T01:35:34.248Z,0.98
2018-03-18T01:36:38.256Z,0.97
2018-03-18T01:37:41.631Z,0.95
2018-03-18T01:38:44.967Z,0.95
2018-03-18T01:39:48.310Z,0.95
2018-03-18T01:40:51.688Z,0.97
2018-03-18T01:41:55.082Z,0.99
2018-03-18T01:42:58.376Z,0.98
2018-03-18T01:44:01.778Z,0.99
2018-03-18T01:45:05.202Z,0.98
2018-03-18T01:46:08.631Z,0.97
2018-03-18T01:47:11.974Z,0.95
2018-03-18T01:48:15.426Z,0.94
2018-03-18T01:49:19.335Z,0.93
2018-03-18T01:50:22.674Z,0.90
2018-03-18T01:51:26.063Z,0.88
2018-03-18T01:52:29.416Z,0.89
2018-03-18T01:53:32.748Z,0.89
2018-03-18T01:54:36.196Z,0.89
2018-03-18T01:55:39.508Z,0.89
2018-03-18T01:56:42.914Z,0.91
2018-03-18T01:57:46.244Z,0.94
2018-03-18T01:58:49.580Z,0.96
2018-03-18T01:59:53.240Z,0.98
2018-03-18T02:00:56.585Z,0.99
2018-03-18T02:01:59.996Z,0.99
2018-03-18T02:03:03.312Z,0.99
2018-03-18T02:04:06.734Z,0.97
2018-03-18T02:05:10.163Z,0.96
2018-03-18T02:06:13.558Z,0.98
2018-03-18T02:07:16.960Z,0.99
2018-03-18T02:08:20.278Z,1.00
2018-03-18T02:09:23.632Z,1.00
2018-03-18T02:10:26.996Z,1.00
2018-03-18T02:11:31.948Z,1.00
2018-03-18T02:12:35.235Z,0.98
2018-03-18T02:13:38.544Z,0.97
2018-03-18T02:14:41.881Z,0.98
2018-03-18T02:15:45.325Z,1.00
2018-03-18T02:16:48.792Z,0.99
2018-03-18T02:17:52.124Z,1.00
2018-03-18T02:18:55.435Z,1.02
2018-03-18T02:19:58.880Z,1.02
2018-03-18T02:21:02.285Z,1.03
2018-03-18T02:22:05.818Z,1.04
2018-03-18T02:23:09.195Z,1.04
2018-03-18T02:24:12.484Z,1.05
2018-03-18T02:25:15.840Z,1.06
2018-03-18T02:26:19.168Z,1.08
2018-03-18T02:27:22.552Z,1.09
2018-03-18T02:28:25.915Z,1.11
2018-03-18T02:29:29.273Z,1.11
2018-03-18T02:30:32.631Z,1.12
2018-03-18T02:31:35.977Z,1.11
2018-03-18T02:32:40.176Z,1.08
2018-03-18T02:33:43.548Z,1.07
2018-03-18T02:34:46.930Z,1.07
2018-03-18T02:35:50.337Z,1.06
2018-03-18T02:36:53.796Z,1.04
2018-03-18T02:37:57.195Z,1.02
2018-03-18T02:39:00.604Z,1.02
2018-03-18T02:40:03.959Z,1.04
2018-03-18T02:41:07.310Z,1.04
2018-03-18T02:42:10.701Z,1.03
2018-03-18T02:43:14.057Z,1.02
2018-03-18T02:44:17.402Z,1.00
2018-03-18T02:45:21.056Z,0.99
2018-03-18T02:46:24.452Z,0.99
2018-03-18T02:47:27.844Z,1.01
2018-03-18T02:48:31.197Z,1.01
2018-03-18T02:49:34.536Z,1.01
2018-03-18T02:50:37.877Z,1.01
2018-03-18T02:51:41.219Z,1.01
2018-03-18T02:52:44.723Z,0.99
2018-03-18T02:53:48.088Z,1.00
2018-03-18T02:54:51.566Z,0.98
2018-03-18T02:55:54.887Z,1.00
2018-03-18T02:56:58.237Z,1.02
2018-03-18T02:58:01.578Z,1.03
2018-03-18T02:59:04.908Z,1.03
2018-03-18T03:00:08.330Z,1.00
2018-03-18T03:01:11.632Z,1.01
2018-03-18T03:02:15.613Z,1.02
2018-03-18T03:03:19.109Z,1.03
2018-03-18T03:04:22.405Z,1.04
2018-03-18T03:05:25.745Z,1.06
2018-03-18T03:06:29.072Z,1.05
2018-03-18T03:07:32.445Z,1.06
2018-03-18T03:08:35.820Z,1.04
2018-03-18T03:09:39.223Z,1.02
2018-03-18T03:10:42.627Z,1.01
2018-03-18T03:11:46.985Z,1.01
2018-03-18T03:12:50.383Z,0.98
2018-03-18T03:13:53.720Z,0.95
2018-03-18T03:14:57.109Z,0.93
2018-03-18T03:16:00.440Z,0.90
2018-03-18T03:17:03.753Z,0.92
2018-03-18T03:18:07.134Z,0.90
2018-03-18T03:19:10.572Z,0.90
2018-03-18T03:20:14.537Z,0.89
2018-03-18T03:21:17.899Z,0.89
2018-03-18T03:22:21.606Z,0.89
2018-03-18T03:23:24.917Z,0.89
2018-03-18T03:24:28.376Z,0.89
2018-03-18T03:25:31.776Z,0.89
2018-03-18T03:26:35.091Z,0.88
2018-03-18T03:27:38.422Z,0.88
2018-03-18T03:28:41.753Z,0.87
2018-03-18T03:29:45.157Z,0.84
2018-03-18T03:30:48.474Z,0.83
2018-03-18T03:31:51.772Z,0.83
2018-03-18T03:32:55.208Z,0.84
2018-03-18T03:33:58.537Z,0.83
2018-03-18T03:35:01.921Z,0.84
2018-03-18T03:36:05.235Z,0.83
2018-03-18T03:37:08.548Z,0.83
2018-03-18T03:38:12.008Z,0.83
2018-03-18T03:39:15.495Z,0.83
2018-03-18T03:40:18.856Z,0.85
2018-03-18T03:41:22.288Z,0.86
2018-03-18T03:42:25.823Z,0.85
2018-03-18T03:43:29.124Z,0.83
2018-03-18T03:44:32.433Z,0.82
2018-03-18T03:45:35.854Z,0.83
2018-03-18T03:46:39.164Z,0.85
2018-03-18T03:47:42.481Z,0.87
2018-03-18T03:48:45.843Z,0.88
2018-03-18T03:49:49.184Z,0.91
2018-03-18T03:50:52.572Z,0.93
2018-03-18T03:51:55.894Z,0.93
2018-03-18T03:52:59.255Z,0.92
2018-03-18T03:54:02.703Z,0.89
2018-03-18T03:55:06.192Z,0.87
2018-03-18T03:56:09.573Z,0.84
2018-03-18T03:57:12.945Z,0.85
2018-03-18T03:58:16.326Z,0.84
2018-03-18T03:59:19.647Z,0.82
2018-03-18T04:00:23.087Z,0.81
2018-03-18T04:01:26.415Z,0.82
2018-03-18T04:02:29.791Z,0.79
2018-03-18T04:03:33.176Z,0.76
2018-03-18T04:04:36.490Z,0.74
2018-03-18T04:05:39.868Z,0.73
2018-03-18T04:06:43.435Z,0.74
2018-03-18T04:07:46.781Z,0.76
2018-03-18T04:08:50.326Z,0.77
2018-03-18T04:09:53.727Z,0.80
2018-03-18T04:10:57.044Z,0.81
2018-03-18T04:12:01.338Z,0.81
2018-03-18T04:13:04.651Z,0.80
2018-03-18T04:14:07.992Z,0.81
2018-03-18T04:15:11.964Z,0.83
2018-03-18T04:16:15.258Z,0.81
2018-03-18T04:17:18.656Z,0.78
2018-03-18T04:18:21.978Z,0.75
2018-03-18T04:19:25.296Z,0.73
2018-03-18T04:20:28.811Z,0.70
2018-03-18T04:21:32.157Z,0.69
2018-03-18T04:22:35.766Z,0.69
2018-03-18T04:23:39.293Z,0.68
2018-03-18T04:24:42.726Z,0.68
2018-03-18T04:25:46.227Z,0.67
2018-03-18T04:26:49.634Z,0.67
2018-03-18T04:27:53.013Z,0.67
2018-03-18T04:28:56.418Z,0.65
2018-03-18T04:29:59.720Z,0.63
2018-03-18T04:31:03.176Z,0.62
2018-03-18T04:32:06.502Z,0.59
2018-03-18T04:33:09.926Z,0.59
2018-03-18T04:34:13.333Z,0.60
2018-03-18T04:35:16.733Z,0.60
2018-03-18T04:36:20.089Z,0.62
2018-03-18T04:37:23.477Z,0.64
2018-03-18T04:38:26.926Z,0.67
2018-03-18T04:39:30.263Z,0.69
2018-03-18T04:40:33.578Z,0.70
2018-03-18T04:41:37.022Z,0.72
2018-03-18T04:42:40.368Z,0.71
2018-03-18T04:43:43.753Z,0.71
2018-03-18T04:44:47.159Z,0.69
2018-03-18T04:45:50.539Z,0.70
2018-03-18T04:46:53.920Z,0.73
2018-03-18T04:47:57.281Z,0.74
2018-03-18T04:49:00.631Z,0.77
2018-03-18T04:50:04.052Z,0.79
2018-03-18T04:51:07.370Z,0.82
2018-03-18T04:52:10.981Z,0.82
2018-03-18T04:53:14.276Z,0.81
2018-03-18T04:54:17.661Z,0.81
2018-03-18T04:55:20.960Z,0.83
2018-03-18T04:56:24.368Z,0.84
2018-03-18T04:57:27.707Z,0.84
2018-03-18T04:58:31.010Z,0.85
2018-03-18T04:59:34.500Z,0.86
2018-03-18T05:00:37.902Z,0.88
2018-03-18T05:01:41.211Z,0.89
2018-03-18T05:02:44.680Z,0.89
2018-03-18T05:03:48.955Z,0.86
2018-03-18T05:04:52.357Z,0.84
2018-03-18T05:05:55.658Z,0.86
2018-03-18T05:06:59.048Z,0.86
2018-03-18T05:08:02.464Z,0.88
2018-03-18T05:09:05.790Z,0.88
2018-03-18T05:10:09.163Z,0.88
2018-03-18T05:11:12.548Z,0.89
2018-03-18T05:12:17.585Z,0.88
2018-03-18T05:13:20.970Z,0.85
2018-03-18T05:14:24.340Z,0.83
2018-03-18T05:15:28.700Z,0.82
2018-03-18T05:16:32.340Z,0.83
2018-03-18T05:17:35.721Z,0.84
2018-03-18T05:18:39.030Z,0.84
2018-03-18T05:19:42.931Z,0.84
2018-03-18T05:20:46.244Z,0.85
2018-03-18T05:21:49.683Z,0.86
2018-03-18T05:22:53.012Z,0.86
2018-03-18T05:23:56.401Z,0.84
2018-03-18T05:24:59.719Z,0.83
2018-03-18T05:26:03.156Z,0.83
2018-03-18T05:27:06.619Z,0.80
2018-03-18T05:28:09.936Z,0.78
2018-03-18T05:29:13.337Z,0.77
2018-03-18T05:30:16.713Z,0.77
2018-03-18T05:31:20.184Z,0.77
2018-03-18T05:32:23.588Z,0.77
2018-03-18T05:33:26.912Z,0.74
2018-03-18T05:34:30.321Z,0.75
2018-03-18T05:35:33.733Z,0.75
2018-03-18T05:36:37.197Z,0.75
2018-03-18T05:37:40.549Z,0.76
2018-03-18T05:38:43.915Z,0.79
2018-03-18T05:39:47.231Z,0.81
2018-03-18T05:40:50.719Z,0.84
2018-03-18T05:41:54.106Z,0.87
2018-03-18T05:42:57.401Z,0.85
2018-03-18T05:44:00.747Z,0.85
2018-03-18T05:45:04.162Z,0.82
2018-03-18T05:46:07.747Z,0.80
2018-03-18T05:47:11.095Z,0.75
2018-03-18T05:48:14.639Z,0.72
2018-03-18T05:49:17.948Z,0.68
2018-03-18T05:50:21.368Z,0.65
2018-03-18T05:51:24.706Z,0.64
2018-03-18T05:52:28.064Z,0.65
2018-03-18T05:53:31.439Z,0.67
2018-03-18T05:56:53.619Z,0.67
2018-03-18T05:57:57.686Z,0.69
2018-03-18T05:59:01.114Z,0.71
2018-03-18T06:00:04.431Z,0.71
2018-03-18T06:01:07.845Z,0.72
2018-03-18T06:02:11.211Z,0.71
2018-03-18T06:03:14.564Z,0.71
2018-03-18T06:04:17.910Z,0.72
2018-03-18T06:05:21.287Z,0.73
2018-03-18T06:06:26.033Z,0.75
2018-03-18T06:07:29.331Z,0.77
2018-03-18T06:08:33.724Z,0.78
2018-03-18T06:09:37.172Z,0.77
2018-03-18T06:10:40.521Z,0.80
2018-03-18T06:11:43.927Z,0.82
2018-03-18T06:12:48.139Z,0.82
2018-03-18T06:13:51.492Z,0.85
2018-03-18T06:14:54.840Z,0.85
2018-03-18T06:15:58.128Z,0.86
2018-03-18T06:17:02.138Z,0.86
2018-03-18T06:18:06.449Z,0.87
2018-03-18T06:19:09.897Z,0.87
2018-03-18T06:20:14.321Z,0.88
2018-03-18T06:21:17.708Z,0.88
2018-03-18T06:22:21.011Z,0.92
2018-03-18T06:23:24.437Z,0.92
2018-03-18T06:24:27.871Z,0.91
2018-03-18T06:25:31.271Z,0.91
2018-03-18T06:26:34.565Z,0.91
2018-03-18T06:27:37.868Z,0.91
2018-03-18T06:28:41.207Z,0.93
2018-03-18T06:29:44.695Z,0.95
2018-03-18T06:30:47.999Z,0.94
2018-03-18T06:31:51.361Z,0.95
2018-03-18T06:32:54.713Z,0.94
2018-03-18T06:33:58.072Z,0.94
2018-03-18T06:35:01.532Z,0.95
2018-03-18T06:36:04.869Z,0.93
2018-03-18T06:37:08.279Z,0.90
2018-03-18T06:38:11.620Z,0.87
2018-03-18T06:39:14.928Z,0.85
2018-03-18T06:40:18.312Z,0.84
2018-03-18T06:41:21.860Z,0.80
2018-03-18T06:42:25.197Z,0.75
2018-03-18T06:43:28.621Z,0.72
2018-03-18T06:44:31.931Z,0.69
2018-03-18T06:45:35.276Z,0.69
2018-03-18T06:46:38.585Z,0.70
2018-03-18T06:47:41.955Z,0.69
2018-03-18T06:48:45.280Z,0.69
2018-03-18T06:49:48.586Z,0.69
2018-03-18T06:50:51.965Z,0.69
2018-03-18T06:51:55.285Z,0.69
2018-03-18T06:52:58.764Z,0.67
2018-03-18T06:54:02.196Z,0.67
2018-03-18T06:55:05.509Z,0.66
2018-03-18T06:56:08.856Z,0.68
2018-03-18T06:57:12.312Z,0.71
2018-03-18T06:58:15.703Z,0.71
2018-03-18T06:59:19.075Z,0.73
2018-03-18T07:00:22.382Z,0.74
2018-03-18T07:01:25.708Z,0.76
2018-03-18T07:02:29.132Z,0.77
2018-03-18T07:03:32.532Z,0.76
2018-03-18T07:04:35.822Z,0.77
2018-03-18T07:05:39.169Z,0.78
2018-03-18T07:06:42.529Z,0.80
2018-03-18T07:07:46.058Z,0.83
2018-03-18T07:08:49.471Z,0.84
2018-03-18T07:09:52.967Z,0.84
2018-03-18T07:10:56.325Z,0.84
2018-03-18T07:11:59.675Z,0.84
2018-03-18T07:13:04.707Z,0.86
2018-03-18T07:14:08.066Z,0.88
2018-03-18T07:15:11.517Z,0.91
2018-03-18T07:16:14.888Z,0.92
2018-03-18T07:17:18.628Z,0.93
2018-03-18T07:18:22.039Z,0.94
2018-03-18T07:19:25.408Z,0.95
2018-03-18T07:20:28.694Z,0.97
2018-03-18T07:21:32.328Z,0.97
2018-03-18T07:22:35.735Z,0.97
2018-03-18T07:23:39.075Z,0.98
2018-03-18T07:24:42.480Z,0.99
2018-03-18T07:25:45.788Z,1.00
2018-03-18T07:26:49.101Z,0.99
2018-03-18T07:27:53.451Z,0.95
2018-03-18T07:28:56.802Z,0.90
2018-03-18T07:31:09.771Z,0.75
2018-03-18T07:32:13.912Z,0.70
2018-03-18T07:33:17.273Z,0.67
2018-03-18T07:34:20.699Z,0.64
2018-03-18T07:35:24.026Z,0.64
2018-03-18T07:36:27.472Z,0.66
2018-03-18T07:37:30.818Z,0.67
2018-03-18T07:38:34.285Z,0.67
2018-03-18T07:39:37.654Z,0.67
2018-03-18T07:40:40.977Z,0.67
2018-03-18T07:41:44.316Z,0.69
2018-03-18T07:42:47.689Z,0.70
2018-03-18T07:43:51.014Z,0.71
2018-03-18T07:44:54.373Z,0.72
2018-03-18T07:45:57.969Z,0.73
2018-03-18T07:47:01.407Z,0.72
2018-03-18T07:48:04.795Z,0.74
2018-03-18T07:49:08.113Z,0.73
2018-03-18T07:50:11.499Z,0.74
2018-03-18T07:51:15.235Z,0.73
2018-03-18T07:52:18.752Z,0.74
2018-03-18T07:53:22.099Z,0.75
2018-03-18T07:54:25.475Z,0.74
2018-03-18T07:55:28.818Z,0.74
2018-03-18T07:56:32.355Z,0.75
2018-03-18T07:57:35.732Z,0.72
2018-03-18T07:58:39.139Z,0.69
2018-03-18T07:59:42.520Z,0.64
2018-03-18T08:00:45.931Z,0.60
2018-03-18T08:01:49.283Z,0.58
2018-03-18T08:02:52.652Z,0.55
2018-03-18T08:03:55.964Z,0.54
2018-03-18T08:04:59.308Z,0.53
2018-03-18T08:06:02.816Z,0.54
2018-03-18T08:07:06.119Z,0.57
2018-03-18T08:08:09.510Z,0.59
2018-03-18T08:09:12.829Z,0.62
2018-03-18T08:10:16.221Z,0.63
2018-03-18T08:11:25.708Z,0.63
2018-03-18T08:12:29.019Z,0.61
2018-03-18T08:13:34.758Z,0.61
2018-03-18T08:14:38.101Z,0.63
2018-03-18T08:15:41.491Z,0.64
2018-03-18T08:16:44.937Z,0.67
2018-03-18T08:17:48.276Z,0.66
2018-03-18T08:18:51.644Z,0.66
2018-03-18T08:19:55.149Z,0.64
2018-03-18T08:20:58.529Z,0.60
2018-03-18T08:22:03.152Z,0.57
2018-03-18T08:23:06.480Z,0.54
2018-03-18T08:24:09.890Z,0.52
2018-03-18T08:25:13.261Z,0.47
2018-03-18T08:26:16.706Z,0.44
2018-03-18T08:27:20.884Z,0.43
2018-03-18T08:28:24.797Z,0.42
2018-03-18T08:29:29.018Z,0.40
2018-03-18T08:30:32.427Z,0.38
2018-03-18T08:31:35.964Z,0.37
2018-03-18T08:32:39.357Z,0.38
2018-03-18T08:33:42.736Z,0.40
2018-03-18T08:34:46.123Z,0.41
2018-03-18T08:35:49.637Z,0.44
2018-03-18T08:36:53.010Z,0.44
2018-03-18T08:37:56.380Z,0.44
2018-03-18T08:38:59.718Z,0.47
2018-03-18T08:40:03.688Z,0.49
2018-03-18T08:41:07.161Z,0.50
2018-03-18T08:42:13.029Z,0.50
2018-03-18T08:43:16.361Z,0.51
2018-03-18T08:44:20.362Z,0.53
2018-03-18T08:45:23.813Z,0.55
2018-03-18T08:46:27.193Z,0.58
2018-03-18T08:47:30.593Z,0.59
2018-03-18T08:48:34.246Z,0.63
2018-03-18T08:49:38.296Z,0.66
2018-03-18T08:50:42.041Z,0.67
2018-03-18T08:51:45.485Z,0.70
2018-03-18T08:52:48.836Z,0.70
2018-03-18T08:53:53.617Z,0.69
2018-03-18T08:54:57.018Z,0.65
2018-03-18T08:56:01.792Z,0.62
2018-03-18T08:57:05.176Z,0.57
2018-03-18T08:58:08.663Z,0.53
2018-03-18T08:59:11.980Z,0.51
2018-03-18T09:00:15.362Z,0.50
2018-03-18T09:01:18.827Z,0.48
2018-03-18T09:02:22.444Z,0.46
2018-03-18T09:03:25.798Z,0.43
2018-03-18T09:04:29.198Z,0.41
2018-03-18T09:05:32.534Z,0.40
2018-03-18T09:06:35.982Z,0.40
2018-03-18T09:07:39.441Z,0.40
2018-03-18T09:08:42.848Z,0.42
2018-03-18T09:09:46.299Z,0.41
2018-03-18T09:10:49.755Z,0.42
2018-03-18T09:11:53.185Z,0.42
2018-03-18T09:12:56.501Z,0.41
2018-03-18T09:14:01.653Z,0.38
2018-03-18T09:15:05.061Z,0.36
2018-03-18T09:16:08.376Z,0.35
2018-03-18T09:17:11.731Z,0.36
2018-03-18T09:18:15.152Z,0.37
2018-03-18T09:19:18.584Z,0.36
2018-03-18T09:20:22.272Z,0.39
2018-03-18T09:21:25.849Z,0.42
2018-03-18T09:22:29.197Z,0.43
2018-03-18T09:23:32.534Z,0.44
2018-03-18T09:24:35.963Z,0.40
2018-03-18T09:25:39.813Z,0.37
2018-03-18T09:26:43.173Z,0.39
2018-03-18T09:27:46.510Z,0.42
2018-03-18T09:28:50.016Z,0.44
2018-03-18T09:29:53.383Z,0.45
2018-03-18T09:30:56.803Z,0.46
2018-03-18T09:32:00.179Z,0.47
2018-03-18T09:33:03.555Z,0.50
2018-03-18T09:34:07.006Z,0.53
2018-03-18T09:35:10.348Z,0.57
2018-03-18T09:36:13.745Z,0.60
2018-03-18T09:37:17.197Z,0.63
2018-03-18T09:38:20.522Z,0.66
2018-03-18T09:39:23.914Z,0.67
2018-03-18T09:40:27.375Z,0.70
2018-03-18T09:41:30.716Z,0.73
2018-03-18T09:42:34.259Z,0.77
2018-03-18T09:43:37.608Z,0.81
2018-03-18T09:44:41.152Z,0.84
2018-03-18T09:45:44.479Z,0.85
2018-03-18T09:46:47.891Z,0.85
2018-03-18T09:47:51.337Z,0.88
2018-03-18T09:48:54.699Z,0.92
2018-03-18T09:49:58.110Z,0.97
2018-03-18T09:51:01.548Z,1.00
2018-03-18T09:52:05.052Z,1.03
2018-03-18T09:53:08.353Z,1.06
2018-03-18T09:54:11.700Z,1.10
2018-03-18T09:55:15.043Z,1.14
2018-03-18T09:56:18.478Z,1.14
2018-03-18T09:57:21.989Z,1.11
2018-03-18T09:58:25.348Z,1.10
2018-03-18T09:59:28.702Z,1.10
2018-03-18T10:00:32.096Z,1.13
2018-03-18T10:01:35.489Z,1.18
2018-03-18T10:02:38.888Z,1.22
2018-03-18T10:03:42.282Z,1.28
2018-03-18T10:04:45.634Z,1.36
2018-03-18T10:05:49.070Z,1.42
2018-03-18T10:06:52.540Z,1.48
2018-03-18T10:07:55.952Z,1.51
2018-03-18T10:08:59.328Z,1.51
2018-03-18T10:10:02.713Z,1.51
2018-03-18T10:11:06.421Z,1.54
2018-03-18T10:12:09.787Z,1.58
2018-03-18T10:13:13.086Z,1.61
2018-03-18T10:14:17.475Z,1.66
2018-03-18T10:15:20.813Z,1.72
2018-03-18T10:16:24.372Z,1.75
2018-03-18T10:17:27.777Z,1.81
2018-03-18T10:18:31.108Z,1.86
2018-03-18T10:19:34.446Z,1.91
2018-03-18T10:20:37.860Z,1.93
2018-03-18T10:21:41.256Z,1.96
2018-03-18T10:22:44.670Z,1.97
2018-03-18T10:23:48.084Z,1.99
2018-03-18T10:24:51.435Z,2.04
2018-03-18T10:25:54.748Z,2.07
2018-03-18T10:26:58.147Z,2.10
2018-03-18T10:28:01.552Z,2.12
2018-03-18T10:29:04.910Z,2.15
2018-03-18T10:30:08.249Z,2.18
2018-03-18T10:31:11.820Z,2.17
2018-03-18T10:32:15.117Z,2.14
2018-03-18T10:33:18.538Z,2.08
2018-03-18T10:34:21.877Z,2.02
2018-03-18T10:35:25.295Z,2.00
2018-03-18T10:36:28.631Z,1.98
2018-03-18T10:37:32.429Z,1.99
2018-03-18T10:38:35.783Z,1.99
2018-03-18T10:39:39.218Z,2.02
2018-03-18T10:40:42.623Z,2.05
2018-03-18T10:41:45.932Z,2.09
2018-03-18T10:42:49.256Z,2.12
2018-03-18T10:43:52.679Z,2.12
2018-03-18T10:44:56.061Z,2.12
2018-03-18T10:45:59.455Z,2.10
2018-03-18T10:47:04.170Z,2.06
2018-03-18T10:48:07.577Z,2.04
2018-03-18T10:49:10.963Z,2.05
2018-03-18T10:50:14.299Z,2.05
2018-03-18T10:51:19.592Z,2.05
2018-03-18T10:52:22.982Z,2.02
2018-03-18T10:53:26.624Z,2.05
2018-03-18T10:54:29.987Z,2.09
2018-03-18T10:55:33.343Z,2.14
2018-03-18T10:56:36.881Z,2.21
2018-03-18T10:57:40.278Z,2.26
2018-03-18T10:58:43.700Z,2.31
2018-03-18T10:59:47.116Z,2.35
2018-03-18T11:00:54.005Z,2.37
2018-03-18T11:02:02.946Z,2.38
2018-03-18T11:03:06.582Z,2.43
2018-03-18T11:04:10.838Z,2.47
2018-03-18T11:05:14.233Z,2.48
2018-03-18T11:06:17.565Z,2.51
2018-03-18T11:07:21.121Z,2.52
2018-03-18T11:08:24.503Z,2.52
2018-03-18T11:09:27.865Z,2.52
2018-03-18T11:10:31.223Z,2.51
2018-03-18T11:11:34.602Z,2.51
2018-03-18T11:12:38.109Z,2.50
2018-03-18T11:13:41.580Z,2.49
2018-03-18T11:14:44.936Z,2.47
2018-03-18T11:15:48.347Z,2.47
2018-03-18T11:16:51.723Z,2.45
2018-03-18T11:17:55.081Z,2.41
2018-03-18T11:18:58.407Z,2.39
2018-03-18T11:20:01.852Z,2.39
2018-03-18T11:21:05.290Z,2.37
2018-03-18T11:22:08.691Z,2.38
2018-03-18T11:23:12.106Z,2.42
2018-03-18T11:24:15.477Z,2.49
2018-03-18T11:25:18.942Z,2.54
2018-03-18T11:26:22.434Z,2.58
2018-03-18T11:27:25.778Z,2.59
2018-03-18T11:28:29.203Z,2.61
2018-03-18T11:29:32.617Z,2.62
2018-03-18T11:30:36.044Z,2.62
2018-03-18T11:31:39.466Z,2.65
2018-03-18T11:32:42.845Z,2.67
2018-03-18T11:33:46.607Z,2.71
2018-03-18T11:34:51.952Z,2.78
2018-03-18T11:35:55.322Z,2.85
2018-03-18T11:36:58.707Z,2.90
2018-03-18T11:38:02.251Z,2.94
2018-03-18T11:39:05.619Z,2.93
2018-03-18T11:40:08.975Z,2.89
2018-03-18T11:41:12.355Z,2.85
2018-03-18T11:42:15.928Z,2.83
2018-03-18T11:43:19.397Z,2.85
2018-03-18T11:44:22.823Z,2.89
2018-03-18T11:45:26.197Z,2.95
2018-03-18T11:46:29.718Z,3.02
2018-03-18T11:47:33.079Z,3.04
2018-03-18T11:48:36.610Z,3.07
2018-03-18T11:49:39.988Z,3.10
2018-03-18T11:50:43.341Z,3.09
2018-03-18T11:51:48.505Z,3.12
2018-03-18T11:52:51.888Z,3.15
2018-03-18T11:53:55.329Z,3.19
2018-03-18T11:54:58.667Z,3.23
2018-03-18T11:56:02.065Z,3.26
2018-03-18T11:57:05.380Z,3.27
2018-03-18T11:58:08.937Z,3.28
2018-03-18T11:59:12.340Z,3.31
2018-03-18T12:00:15.819Z,3.35
2018-03-18T12:01:19.163Z,3.39
2018-03-18T12:02:23.339Z,3.42
2018-03-18T12:03:26.856Z,3.42
2018-03-18T12:04:30.184Z,3.42
2018-03-18T12:05:33.562Z,3.39
2018-03-18T12:06:36.953Z,3.35
2018-03-18T12:07:40.296Z,3.36
2018-03-18T12:08:56.025Z,3.39
2018-03-18T12:09:59.451Z,3.40
2018-03-18T12:11:02.787Z,3.40
2018-03-18T12:12:06.116Z,3.39
2018-03-18T12:13:10.429Z,3.41
2018-03-18T12:14:13.948Z,3.43
2018-03-18T12:15:17.313Z,3.44
2018-03-18T12:16:20.848Z,3.45
2018-03-18T12:17:24.173Z,3.46
2018-03-18T12:18:27.560Z,3.44
2018-03-18T12:19:30.969Z,3.43
2018-03-18T12:20:34.307Z,3.38
2018-03-18T12:21:37.646Z,3.32
2018-03-18T12:22:41.141Z,3.26
2018-03-18T12:23:44.551Z,3.22
2018-03-18T12:24:47.954Z,3.16
2018-03-18T12:25:51.498Z,3.14
2018-03-18T12:26:54.807Z,3.15
2018-03-18T12:27:58.121Z,3.18
2018-03-18T12:29:01.485Z,3.19
2018-03-18T12:30:04.911Z,3.23
2018-03-18T12:31:08.359Z,3.27
2018-03-18T12:32:11.864Z,3.30
2018-03-18T12:33:15.320Z,3.31
2018-03-18T12:34:18.697Z,3.31
2018-03-18T12:35:22.147Z,3.31
2018-03-18T12:36:25.624Z,3.29
2018-03-18T12:37:29.300Z,3.32
2018-03-18T12:38:32.633Z,3.38
2018-03-18T12:39:47.865Z,3.43
2018-03-18T12:40:52.256Z,3.43
2018-03-18T12:41:55.567Z,3.43
2018-03-18T12:43:10.768Z,3.44
2018-03-18T12:44:14.151Z,3.41
2018-03-18T12:45:17.563Z,3.43
2018-03-18T12:46:20.926Z,3.41
2018-03-18T12:47:24.318Z,3.43
2018-03-18T12:48:27.651Z,3.46
2018-03-18T12:49:30.988Z,3.46
2018-03-18T12:50:34.360Z,3.48
2018-03-18T12:51:37.776Z,3.52
2018-03-18T12:52:41.282Z,3.53
2018-03-18T12:53:44.587Z,3.53
2018-03-18T12:54:47.910Z,3.55
2018-03-18T12:55:51.330Z,3.58
2018-03-18T12:56:54.757Z,3.63
2018-03-18T12:57:58.151Z,3.64
2018-03-18T12:59:01.492Z,3.64
2018-03-18T13:00:04.804Z,3.66
2018-03-18T13:01:08.180Z,3.68
2018-03-18T13:02:11.591Z,3.71
2018-03-18T13:03:14.916Z,3.74
2018-03-18T13:04:18.209Z,3.77
2018-03-18T13:05:21.547Z,3.77
2018-03-18T13:06:25.584Z,3.76
2018-03-18T13:07:29.023Z,3.75
2018-03-18T13:08:32.338Z,3.76
2018-03-18T13:09:36.010Z,3.78
2018-03-18T13:10:39.390Z,3.79
2018-03-18T13:11:42.719Z,3.78
2018-03-18T13:12:47.002Z,3.81
2018-03-18T13:13:50.367Z,3.84
2018-03-18T13:14:53.652Z,3.86
2018-03-18T13:15:57.004Z,3.90
2018-03-18T13:17:00.322Z,3.94
2018-03-18T13:18:04.528Z,3.98
2018-03-18T13:19:07.847Z,4.02
2018-03-18T13:20:11.167Z,4.04
2018-03-18T13:21:14.492Z,4.07
2018-03-18T13:22:17.992Z,4.11
2018-03-18T13:23:21.385Z,4.15
2018-03-18T13:24:24.812Z,4.20
2018-03-18T13:25:28.153Z,4.22
2018-03-18T13:26:31.520Z,4.21
2018-03-18T13:27:34.892Z,4.20
2018-03-18T13:28:38.317Z,4.21
2018-03-18T13:29:41.638Z,4.22
2018-03-18T13:30:44.946Z,4.23
2018-03-18T13:31:48.267Z,4.21
2018-03-18T13:32:51.595Z,4.19
2018-03-18T13:33:55.070Z,4.20
2018-03-18T13:34:58.400Z,4.21
2018-03-18T13:36:01.711Z,4.22
2018-03-18T13:37:05.011Z,4.19
2018-03-18T13:38:08.429Z,4.14
2018-03-18T13:39:11.804Z,4.14
2018-03-18T13:40:15.159Z,4.15
2018-03-18T13:41:18.737Z,4.16
2018-03-18T13:42:22.024Z,4.17
2018-03-18T13:43:25.409Z,4.18
2018-03-18T13:44:28.838Z,4.21
2018-03-18T13:45:32.151Z,4.24
2018-03-18T13:46:36.428Z,4.27
2018-03-18T13:47:39.744Z,4.29
2018-03-18T13:48:43.106Z,4.30
2018-03-18T13:49:46.624Z,4.31
2018-03-18T13:50:50.025Z,4.29
2018-03-18T13:51:53.410Z,4.28
2018-03-18T13:52:56.942Z,4.27
2018-03-18T13:54:00.277Z,4.29
2018-03-18T13:55:03.748Z,4.30
2018-03-18T13:56:07.110Z,4.29
2018-03-18T13:57:10.458Z,4.29
2018-03-18T13:58:13.773Z,4.27
2018-03-18T13:59:17.991Z,4.23
2018-03-18T14:00:21.426Z,4.21
2018-03-18T14:01:24.793Z,4.20
2018-03-18T14:02:28.193Z,4.22
2018-03-18T14:03:31.722Z,4.25
2018-03-18T14:04:35.085Z,4.28
2018-03-18T14:05:38.580Z,4.34
2018-03-18T14:06:42.462Z,4.40
2018-03-18T14:07:45.788Z,4.46
2018-03-18T14:08:49.106Z,4.49
2018-03-18T14:09:52.421Z,4.53
2018-03-18T14:10:55.866Z,4.53